AirNav   Everest Fuels
 
 944 users online  

MY18 Lino Air Park
Lino Lakes, Minnesota, USA

GOING TO LINO LAKES?


FAA INFORMATION EFFECTIVE 07 NOVEMBER 2019

Location

FAA Identifier: MY18
Lat/Long: 45-11-13.8780N 093-07-49.8030W
45-11.231300N 093-07.830050W
45.1871883,-93.1305008
(estimated)
Elevation: 907 ft. / 276.5 m (surveyed)
Variation: 03E (1985)
From city: 2 miles SW of LINO LAKES, MN
Time zone: UTC -6 (UTC -5 during Daylight Saving Time)
Zip code: 55014

Airport Operations

Airport use: Private use. Permission required prior to landing
Activation date: 10/1980
Control tower: no
ARTCC: MINNEAPOLIS CENTER
FSS: PRINCETON FLIGHT SERVICE STATION
Attendance: UNATNDD
Wind indicator: yes
Segmented circle: no
Lights: DUSK-0100

Airport Communications

WX AWOS-3 at ANE (4 nm SW): PHONE 763-780-9025
WX ASOS at MIC (12 nm SW): PHONE 763-531-2343
WX ASOS at STP (15 nm S): PHONE 651-298-1410
WX AWOS-3 at 21D (16 nm SE): 120.075 (651-779-5949)
WX ASOS at MSP (19 nm S): PHONE 612-713-4174
WX AWOS-3 at OEO (20 nm E): 119.925 (715-294-3845)

Nearby radio navigation aids

VOR radial/distance  VOR name  Freq  Var
GEPr070/10.6GOPHER VORTAC117.3006E
MSPr012/18.0MINNEAPOLIS VOR/DME115.3002E
FCMr030/25.4FLYING CLOUD VOR/DME117.7001E
FGTr358/33.4FARMINGTON VORTAC115.7006E

 
NDB name  Hdg/Dist  Freq  Var  ID
HOPEY334/20.540003EPPI .--. .--. ..
CAMBRIDGE165/22.935001ECBG -.-. -... --.
PRINCETON135/30.336803EPNM .--. -. --
RUSH CITY192/31.428202EROS .-. --- ...

Airport Services

Runway Information

Runway 9/27

Dimensions: 2383 x 120 ft. / 726 x 37 m
Surface: turf, in good condition
Runway edge lights: low intensity
RUNWAY 9  RUNWAY 27
Traffic pattern: rightleft
Obstructions: 21 ft. trees, 150 ft. from runway, 120 ft. left of centerline, 7:1 slope to clear30 ft. tree, 20 ft. from runway, 90 ft. right of centerline

Airport Ownership and Management from official FAA records

Ownership: Privately-owned
Owner: LINO AIR PARK INC
8383 4TH AVENEUE
LINO LAKES, MN 55014
Phone 612-786-4106
Manager: NICK NELSON
7770 CLYDESDALE CIR
LIND LAKES, MN 55014
Phone (612) 470-6918

Airport Operational Statistics

Aircraft based on the field: 45
Single engine airplanes: 40
Multi engine airplanes: 5
    

Additional Remarks

FOR CD CTC MINNEAPOLIS ARTCC AT 651-463-5588.
OWNER DESIRES ARPT BE CHARTED.

Instrument Procedures

There are no published instrument procedures at MY18.

Some nearby airports with instrument procedures:

KANE - Anoka County-Blaine Airport (Janes Field) (4 nm SW)
KMIC - Crystal Airport (12 nm SW)
KSTP - St Paul Downtown Airport Holman Field (15 nm S)
21D - Lake Elmo Airport (16 nm SE)
KMSP - Minneapolis-St Paul International/Wold-Chamberlain Airport (19 nm S)
KOEO - L O Simenstad Municipal Airport (20 nm E)
 
Loc | Ops | Rwys | IFR | FBO | Links
Com | Nav | Svcs | Stats | Notes
Area around MY18 (Lino Air Park)
 
Road maps at: MapQuest Bing Google
 
Aerial photo
WARNING: Photo may not be current or correct
Aerial photo of MY18 (Lino Air Park)
Do you have a better or more recent aerial photo of Lino Air Park that you would like to share? If so, please send us your photo.

 
Sectional chart

 
Airport distance calculator
Flying to Lino Air Park? Find the distance to fly.

From to MY18

Sunrise and sunset
Times for 21-Nov-2019
 Local
(UTC-6)
 Zulu
(UTC)
Morning civil twilight06:4712:47
Sunrise07:2013:20
Sunset16:3722:37
Evening civil twilight17:0923:09

Current date and time
Zulu (UTC)  22-Nov-2019 03:23:26
Local (UTC-6)  21-Nov-2019 21:23:26
 
METAR
KANE 
5nm SW 
220245Z 33010G16KT 10SM OVC025 M05/M09 A3017
KMIC 
12nm SW 
220253Z AUTO 33013KT 10SM OVC023 M06/M11 A3018 RMK AO2 SLP231 T10561106 53027
KSTP 
16nm S 
220253Z 32015KT 10SM OVC026 M05/M11 A3020 RMK AO2 SLP234 T10501106 53031 $
K21D 
16nm SE 
220256Z AUTO 34010G15KT 10SM OVC022 M05/M08 A3018 RMK AO2
KMSP 
19nm S 
220253Z 36012KT 10SM BKN025 M05/M11 A3018 RMK AO2 SLP232 T10501106 53027
TAF
KMSP 
19nm S 
220219Z 2202/2306 32009G14KT P6SM BKN020 TEMPO 2204/2206 SCT020 FM220600 31009KT P6SM FEW020 FM220800 29005KT P6SM SKC FM221600 22008KT P6SM SKC FM230000 19005KT P6SM SKC
NOTAMs
Click for the latest NOTAMs
NOTAMs are issued by the DoD/FAA and will open in a separate window not controlled by AirNav.

 

 
 

Would you like to see your business listed on this page?

 If your business provides an interesting product or service to pilots, flight crews, aircraft, or users of the Lino Air Park, you should consider listing it here.  To start the listing process, click on the button below
 
Add a business
 

Other Pages about Lino Air Park

Update a link
 
Copyright © AirNav, LLC. All rights reserved. Privacy Policy  Contact